KSCF/SCF METAR and TAF weather

Enter ICAO airport designator
Station Type Date Time Source
KSCF METAR 2019/12/08 00:55 UTC NOAA

KSCF 080055Z AUTO 10010KT 6SM HZ CLR 16/12 A3019 RMK A01


Station Type Date Time Source
KSCF Decoded METAR 2019/12/08 00:55 UTC NOAA

South Marsh 268, LA, United States (KSCF) 29-06-57N 091-52-16W
Dec 07, 2019 - 07:55 PM EST / 2019.12.08 0055 UTC
Wind: from the E (100 degrees) at 12 MPH (10 KT):0
Visibility: 6 mile(s):0
Sky conditions: clear
Weather: haze
Temperature: 60 F (16 C)
Dew Point: 53 F (12 C)
Relative Humidity: 77%
Pressure (altimeter): 30.19 in. Hg (1022 hPa)
ob: KSCF 080055Z AUTO 10010KT 6SM HZ CLR 16/12 A3019 RMK A01
cycle: 1

Station Type Date Time Source
KSCF TAF UTC NOAA

Error!

Example: see airport list